sensor_id;sensor_type;location;lat;lon;timestamp;P1;durP1;ratioP1;P2;durP2;ratioP2
75148;SDS011;63724;47.470;19.166;2023-03-01T00:02:30;22.27;;;11.43;;
75148;SDS011;63724;47.470;19.166;2023-03-01T00:05:33;19.80;;;10.10;;
75148;SDS011;63724;47.470;19.166;2023-03-01T00:08:35;20.90;;;10.80;;
75148;SDS011;63724;47.470;19.166;2023-03-01T00:11:38;23.48;;;10.68;;
75148;SDS011;63724;47.470;19.166;2023-03-01T00:14:40;18.52;;;10.40;;
75148;SDS011;63724;47.470;19.166;2023-03-01T00:17:43;22.25;;;10.98;;
75148;SDS011;63724;47.470;19.166;2023-03-01T00:20:55;25.97;;;9.80;;
75148;SDS011;63724;47.470;19.166;2023-03-01T00:23:57;19.85;;;10.52;;
75148;SDS011;63724;47.470;19.166;2023-03-01T00:27:00;23.00;;;10.75;;
75148;SDS011;63724;47.470;19.166;2023-03-01T00:30:02;18.17;;;9.32;;
75148;SDS011;63724;47.470;19.166;2023-03-01T00:33:05;20.77;;;10.75;;
75148;SDS011;63724;47.470;19.166;2023-03-01T00:36:08;19.90;;;10.63;;
75148;SDS011;63724;47.470;19.166;2023-03-01T00:39:12;17.70;;;10.15;;
75148;SDS011;63724;47.470;19.166;2023-03-01T00:42:17;19.45;;;10.27;;
75148;SDS011;63724;47.470;19.166;2023-03-01T00:45:20;15.82;;;9.60;;
75148;SDS011;63724;47.470;19.166;2023-03-01T00:48:22;18.20;;;9.77;;
75148;SDS011;63724;47.470;19.166;2023-03-01T00:51:26;24.63;;;9.93;;
75148;SDS011;63724;47.470;19.166;2023-03-01T00:54:31;21.60;;;10.13;;
75148;SDS011;63724;47.470;19.166;2023-03-01T00:57:33;18.83;;;10.43;;
75148;SDS011;63724;47.470;19.166;2023-03-01T01:00:35;22.10;;;10.85;;
75148;SDS011;63724;47.470;19.166;2023-03-01T01:03:38;19.83;;;10.20;;
75148;SDS011;63724;47.470;19.166;2023-03-01T01:06:45;19.47;;;9.97;;
75148;SDS011;63724;47.470;19.166;2023-03-01T01:09:48;20.80;;;10.20;;
75148;SDS011;63724;47.470;19.166;2023-03-01T01:12:51;19.27;;;9.88;;
75148;SDS011;63724;47.470;19.166;2023-03-01T01:15:53;21.45;;;10.02;;
75148;SDS011;63724;47.470;19.166;2023-03-01T01:18:56;18.33;;;9.38;;
75148;SDS011;63724;47.470;19.166;2023-03-01T01:21:59;21.17;;;10.17;;
75148;SDS011;63724;47.470;19.166;2023-03-01T01:25:01;19.55;;;10.40;;
75148;SDS011;63724;47.470;19.166;2023-03-01T01:28:04;23.27;;;10.85;;
75148;SDS011;63724;47.470;19.166;2023-03-01T01:31:06;23.58;;;10.70;;
75148;SDS011;63724;47.470;19.166;2023-03-01T01:34:13;20.67;;;10.35;;
75148;SDS011;63724;47.470;19.166;2023-03-01T01:37:20;24.00;;;10.57;;
75148;SDS011;63724;47.470;19.166;2023-03-01T01:40:22;21.92;;;10.48;;
75148;SDS011;63724;47.470;19.166;2023-03-01T01:43:26;19.85;;;10.18;;
75148;SDS011;63724;47.470;19.166;2023-03-01T01:49:49;22.02;;;11.18;;
75148;SDS011;63724;47.470;19.166;2023-03-01T01:52:53;20.47;;;9.93;;
75148;SDS011;63724;47.470;19.166;2023-03-01T01:55:57;19.90;;;10.25;;
75148;SDS011;63724;47.470;19.166;2023-03-01T01:59:01;19.52;;;10.27;;
75148;SDS011;63724;47.470;19.166;2023-03-01T02:02:04;19.38;;;10.52;;
75148;SDS011;63724;47.470;19.166;2023-03-01T02:05:20;22.25;;;10.93;;
75148;SDS011;63724;47.470;19.166;2023-03-01T02:08:31;16.90;;;9.37;;
75148;SDS011;63724;47.470;19.166;2023-03-01T02:11:36;18.52;;;9.43;;
75148;SDS011;63724;47.470;19.166;2023-03-01T02:14:39;19.05;;;9.65;;
75148;SDS011;63724;47.470;19.166;2023-03-01T02:17:42;20.70;;;10.20;;
75148;SDS011;63724;47.470;19.166;2023-03-01T02:23:58;17.53;;;8.53;;
75148;SDS011;63724;47.470;19.166;2023-03-01T02:27:02;18.73;;;9.27;;
75148;SDS011;63724;47.470;19.166;2023-03-01T02:30:05;18.38;;;9.68;;
75148;SDS011;63724;47.470;19.166;2023-03-01T02:33:08;17.70;;;9.48;;
75148;SDS011;63724;47.470;19.166;2023-03-01T02:36:14;20.40;;;9.35;;
75148;SDS011;63724;47.470;19.166;2023-03-01T02:39:19;16.80;;;9.20;;
75148;SDS011;63724;47.470;19.166;2023-03-01T02:42:48;17.45;;;9.32;;
75148;SDS011;63724;47.470;19.166;2023-03-01T02:45:56;14.20;;;8.43;;
75148;SDS011;63724;47.470;19.166;2023-03-01T02:49:00;15.85;;;8.63;;
75148;SDS011;63724;47.470;19.166;2023-03-01T02:55:23;22.60;;;9.67;;
75148;SDS011;63724;47.470;19.166;2023-03-01T02:58:26;14.63;;;8.18;;
75148;SDS011;63724;47.470;19.166;2023-03-01T03:01:29;17.63;;;9.32;;
75148;SDS011;63724;47.470;19.166;2023-03-01T03:04:42;18.15;;;9.35;;
75148;SDS011;63724;47.470;19.166;2023-03-01T03:07:45;18.10;;;9.90;;
75148;SDS011;63724;47.470;19.166;2023-03-01T03:10:49;18.23;;;8.90;;
75148;SDS011;63724;47.470;19.166;2023-03-01T03:13:52;17.77;;;9.18;;
75148;SDS011;63724;47.470;19.166;2023-03-01T03:16:55;17.75;;;9.38;;
75148;SDS011;63724;47.470;19.166;2023-03-01T03:19:57;18.05;;;9.23;;
75148;SDS011;63724;47.470;19.166;2023-03-01T03:23:00;16.95;;;9.77;;
75148;SDS011;63724;47.470;19.166;2023-03-01T03:26:03;17.40;;;9.33;;
75148;SDS011;63724;47.470;19.166;2023-03-01T03:29:06;18.40;;;9.05;;
75148;SDS011;63724;47.470;19.166;2023-03-01T03:32:08;14.73;;;9.25;;
75148;SDS011;63724;47.470;19.166;2023-03-01T03:35:11;17.42;;;9.77;;
75148;SDS011;63724;47.470;19.166;2023-03-01T03:38:14;19.13;;;9.20;;
75148;SDS011;63724;47.470;19.166;2023-03-01T03:41:17;18.67;;;9.27;;
75148;SDS011;63724;47.470;19.166;2023-03-01T03:44:20;18.63;;;9.63;;
75148;SDS011;63724;47.470;19.166;2023-03-01T03:47:23;17.70;;;9.43;;
75148;SDS011;63724;47.470;19.166;2023-03-01T03:50:25;18.35;;;8.80;;
75148;SDS011;63724;47.470;19.166;2023-03-01T03:53:28;17.83;;;9.57;;
75148;SDS011;63724;47.470;19.166;2023-03-01T03:56:31;19.60;;;9.83;;
75148;SDS011;63724;47.470;19.166;2023-03-01T03:59:34;18.17;;;9.90;;
75148;SDS011;63724;47.470;19.166;2023-03-01T04:02:36;22.73;;;9.80;;
75148;SDS011;63724;47.470;19.166;2023-03-01T04:05:39;19.65;;;9.20;;
75148;SDS011;63724;47.470;19.166;2023-03-01T04:08:42;15.48;;;8.60;;
75148;SDS011;63724;47.470;19.166;2023-03-01T04:11:44;17.67;;;9.43;;
75148;SDS011;63724;47.470;19.166;2023-03-01T04:14:47;16.58;;;9.10;;
75148;SDS011;63724;47.470;19.166;2023-03-01T04:17:50;17.83;;;8.70;;
75148;SDS011;63724;47.470;19.166;2023-03-01T04:20:54;15.75;;;8.73;;
75148;SDS011;63724;47.470;19.166;2023-03-01T04:23:57;14.18;;;8.20;;
75148;SDS011;63724;47.470;19.166;2023-03-01T04:26:59;15.07;;;8.13;;
75148;SDS011;63724;47.470;19.166;2023-03-01T04:30:03;15.10;;;7.82;;
75148;SDS011;63724;47.470;19.166;2023-03-01T04:33:06;13.35;;;7.90;;
75148;SDS011;63724;47.470;19.166;2023-03-01T04:36:10;15.88;;;7.97;;
75148;SDS011;63724;47.470;19.166;2023-03-01T04:39:14;14.48;;;8.10;;
75148;SDS011;63724;47.470;19.166;2023-03-01T04:42:17;12.73;;;7.90;;
75148;SDS011;63724;47.470;19.166;2023-03-01T04:45:20;15.98;;;8.98;;
75148;SDS011;63724;47.470;19.166;2023-03-01T04:48:24;17.95;;;8.80;;
75148;SDS011;63724;47.470;19.166;2023-03-01T04:51:26;20.38;;;8.52;;
75148;SDS011;63724;47.470;19.166;2023-03-01T04:54:29;13.20;;;7.50;;
75148;SDS011;63724;47.470;19.166;2023-03-01T04:57:32;16.43;;;8.17;;
75148;SDS011;63724;47.470;19.166;2023-03-01T05:00:35;16.48;;;8.57;;
75148;SDS011;63724;47.470;19.166;2023-03-01T05:03:37;20.45;;;9.57;;
75148;SDS011;63724;47.470;19.166;2023-03-01T05:06:39;15.40;;;8.48;;
75148;SDS011;63724;47.470;19.166;2023-03-01T05:09:42;19.40;;;9.23;;
75148;SDS011;63724;47.470;19.166;2023-03-01T05:12:44;15.90;;;8.33;;
75148;SDS011;63724;47.470;19.166;2023-03-01T05:15:49;16.20;;;8.23;;
75148;SDS011;63724;47.470;19.166;2023-03-01T05:18:56;15.38;;;8.18;;
75148;SDS011;63724;47.470;19.166;2023-03-01T05:21:59;14.45;;;8.23;;
75148;SDS011;63724;47.470;19.166;2023-03-01T05:25:08;15.77;;;8.07;;
75148;SDS011;63724;47.470;19.166;2023-03-01T05:28:11;15.23;;;7.93;;
75148;SDS011;63724;47.470;19.166;2023-03-01T05:31:13;14.90;;;8.35;;
75148;SDS011;63724;47.470;19.166;2023-03-01T05:34:16;16.02;;;8.25;;
75148;SDS011;63724;47.470;19.166;2023-03-01T05:37:18;14.75;;;8.20;;
75148;SDS011;63724;47.470;19.166;2023-03-01T05:40:22;18.30;;;9.07;;
75148;SDS011;63724;47.470;19.166;2023-03-01T05:43:26;17.17;;;8.83;;
75148;SDS011;63724;47.470;19.166;2023-03-01T05:46:28;16.50;;;8.27;;
75148;SDS011;63724;47.470;19.166;2023-03-01T05:49:31;14.77;;;8.43;;
75148;SDS011;63724;47.470;19.166;2023-03-01T05:52:34;20.20;;;8.10;;
75148;SDS011;63724;47.470;19.166;2023-03-01T05:55:36;13.82;;;8.23;;
75148;SDS011;63724;47.470;19.166;2023-03-01T05:58:41;16.03;;;7.97;;
75148;SDS011;63724;47.470;19.166;2023-03-01T06:01:44;17.02;;;8.65;;
75148;SDS011;63724;47.470;19.166;2023-03-01T06:04:46;16.40;;;9.40;;
75148;SDS011;63724;47.470;19.166;2023-03-01T06:07:50;20.58;;;8.20;;
75148;SDS011;63724;47.470;19.166;2023-03-01T06:10:54;18.58;;;8.80;;
75148;SDS011;63724;47.470;19.166;2023-03-01T06:13:56;15.33;;;8.87;;
75148;SDS011;63724;47.470;19.166;2023-03-01T06:16:59;18.73;;;8.18;;
75148;SDS011;63724;47.470;19.166;2023-03-01T06:20:01;19.23;;;8.40;;
75148;SDS011;63724;47.470;19.166;2023-03-01T06:23:05;20.27;;;9.13;;
75148;SDS011;63724;47.470;19.166;2023-03-01T06:26:09;17.67;;;9.13;;
75148;SDS011;63724;47.470;19.166;2023-03-01T06:29:11;15.40;;;7.97;;
75148;SDS011;63724;47.470;19.166;2023-03-01T06:32:14;13.75;;;8.32;;
75148;SDS011;63724;47.470;19.166;2023-03-01T06:35:20;17.35;;;9.02;;
75148;SDS011;63724;47.470;19.166;2023-03-01T06:38:23;18.98;;;8.70;;
75148;SDS011;63724;47.470;19.166;2023-03-01T06:41:26;21.95;;;8.93;;
75148;SDS011;63724;47.470;19.166;2023-03-01T06:44:28;15.40;;;8.60;;
75148;SDS011;63724;47.470;19.166;2023-03-01T06:47:31;17.73;;;8.75;;
75148;SDS011;63724;47.470;19.166;2023-03-01T06:50:35;16.05;;;9.02;;
75148;SDS011;63724;47.470;19.166;2023-03-01T06:53:37;15.68;;;8.73;;
75148;SDS011;63724;47.470;19.166;2023-03-01T06:56:40;16.30;;;8.85;;
75148;SDS011;63724;47.470;19.166;2023-03-01T06:59:42;14.97;;;8.87;;
75148;SDS011;63724;47.470;19.166;2023-03-01T07:02:45;16.83;;;8.52;;
75148;SDS011;63724;47.470;19.166;2023-03-01T07:05:51;17.05;;;8.43;;
75148;SDS011;63724;47.470;19.166;2023-03-01T07:08:54;16.67;;;8.40;;
75148;SDS011;63724;47.470;19.166;2023-03-01T07:11:58;18.23;;;9.02;;
75148;SDS011;63724;47.470;19.166;2023-03-01T07:15:00;15.37;;;7.93;;
75148;SDS011;63724;47.470;19.166;2023-03-01T07:18:02;14.82;;;8.40;;
75148;SDS011;63724;47.470;19.166;2023-03-01T07:21:09;18.60;;;9.60;;
75148;SDS011;63724;47.470;19.166;2023-03-01T07:24:22;15.60;;;8.20;;
75148;SDS011;63724;47.470;19.166;2023-03-01T07:27:26;14.68;;;8.15;;
75148;SDS011;63724;47.470;19.166;2023-03-01T07:30:29;18.90;;;8.80;;
75148;SDS011;63724;47.470;19.166;2023-03-01T07:33:31;17.83;;;8.88;;
75148;SDS011;63724;47.470;19.166;2023-03-01T07:36:34;14.70;;;8.63;;
75148;SDS011;63724;47.470;19.166;2023-03-01T07:39:37;18.75;;;8.35;;
75148;SDS011;63724;47.470;19.166;2023-03-01T07:42:39;15.23;;;8.50;;
75148;SDS011;63724;47.470;19.166;2023-03-01T07:45:42;14.23;;;7.67;;
75148;SDS011;63724;47.470;19.166;2023-03-01T07:48:45;16.70;;;8.02;;
75148;SDS011;63724;47.470;19.166;2023-03-01T07:51:47;16.85;;;8.15;;
75148;SDS011;63724;47.470;19.166;2023-03-01T07:54:49;14.52;;;8.07;;
75148;SDS011;63724;47.470;19.166;2023-03-01T07:57:52;17.98;;;8.68;;
75148;SDS011;63724;47.470;19.166;2023-03-01T08:00:54;15.60;;;8.17;;
75148;SDS011;63724;47.470;19.166;2023-03-01T08:03:57;15.05;;;8.73;;
75148;SDS011;63724;47.470;19.166;2023-03-01T08:06:59;17.75;;;9.43;;
75148;SDS011;63724;47.470;19.166;2023-03-01T08:10:02;17.05;;;8.43;;
75148;SDS011;63724;47.470;19.166;2023-03-01T08:13:04;18.90;;;8.65;;
75148;SDS011;63724;47.470;19.166;2023-03-01T08:16:10;13.63;;;8.47;;
75148;SDS011;63724;47.470;19.166;2023-03-01T08:19:13;15.68;;;8.80;;
75148;SDS011;63724;47.470;19.166;2023-03-01T08:22:16;41.05;;;16.38;;
75148;SDS011;63724;47.470;19.166;2023-03-01T08:25:18;14.13;;;8.13;;
75148;SDS011;63724;47.470;19.166;2023-03-01T08:28:20;12.93;;;7.70;;
75148;SDS011;63724;47.470;19.166;2023-03-01T08:31:24;11.10;;;6.57;;
75148;SDS011;63724;47.470;19.166;2023-03-01T08:34:31;10.70;;;6.15;;
75148;SDS011;63724;47.470;19.166;2023-03-01T08:37:34;11.55;;;6.20;;
75148;SDS011;63724;47.470;19.166;2023-03-01T08:40:36;12.40;;;6.68;;
75148;SDS011;63724;47.470;19.166;2023-03-01T08:43:38;14.18;;;7.35;;
75148;SDS011;63724;47.470;19.166;2023-03-01T08:46:41;9.50;;;6.53;;
75148;SDS011;63724;47.470;19.166;2023-03-01T08:49:43;12.45;;;6.85;;
75148;SDS011;63724;47.470;19.166;2023-03-01T08:52:45;11.43;;;6.97;;
75148;SDS011;63724;47.470;19.166;2023-03-01T08:55:48;10.68;;;6.45;;
75148;SDS011;63724;47.470;19.166;2023-03-01T08:58:51;12.60;;;6.70;;
75148;SDS011;63724;47.470;19.166;2023-03-01T09:01:54;12.30;;;6.57;;
75148;SDS011;63724;47.470;19.166;2023-03-01T09:04:56;13.13;;;7.00;;
75148;SDS011;63724;47.470;19.166;2023-03-01T09:07:58;12.40;;;7.13;;
75148;SDS011;63724;47.470;19.166;2023-03-01T09:11:02;12.65;;;7.55;;
75148;SDS011;63724;47.470;19.166;2023-03-01T09:14:05;15.23;;;7.10;;
75148;SDS011;63724;47.470;19.166;2023-03-01T09:17:08;11.80;;;6.53;;
75148;SDS011;63724;47.470;19.166;2023-03-01T09:20:10;9.88;;;5.97;;
75148;SDS011;63724;47.470;19.166;2023-03-01T09:23:13;11.18;;;6.97;;
75148;SDS011;63724;47.470;19.166;2023-03-01T09:26:20;10.32;;;5.85;;
75148;SDS011;63724;47.470;19.166;2023-03-01T09:29:24;10.25;;;6.38;;
75148;SDS011;63724;47.470;19.166;2023-03-01T09:32:26;9.33;;;6.07;;
75148;SDS011;63724;47.470;19.166;2023-03-01T09:35:28;11.18;;;5.88;;
75148;SDS011;63724;47.470;19.166;2023-03-01T09:38:31;8.82;;;6.10;;
75148;SDS011;63724;47.470;19.166;2023-03-01T09:47:57;8.43;;;5.03;;
75148;SDS011;63724;47.470;19.166;2023-03-01T09:51:01;9.13;;;5.35;;
75148;SDS011;63724;47.470;19.166;2023-03-01T09:54:05;7.55;;;5.03;;
75148;SDS011;63724;47.470;19.166;2023-03-01T09:57:13;8.95;;;4.70;;
75148;SDS011;63724;47.470;19.166;2023-03-01T10:03:47;11.87;;;6.77;;
75148;SDS011;63724;47.470;19.166;2023-03-01T10:10:32;7.97;;;5.22;;
75148;SDS011;63724;47.470;19.166;2023-03-01T10:13:48;11.32;;;5.05;;
75148;SDS011;63724;47.470;19.166;2023-03-01T10:17:03;7.93;;;5.13;;
75148;SDS011;63724;47.470;19.166;2023-03-01T10:20:19;9.10;;;5.03;;
75148;SDS011;63724;47.470;19.166;2023-03-01T10:23:26;9.77;;;5.28;;
75148;SDS011;63724;47.470;19.166;2023-03-01T10:36:18;11.40;;;4.70;;
75148;SDS011;63724;47.470;19.166;2023-03-01T10:39:21;9.98;;;5.05;;
75148;SDS011;63724;47.470;19.166;2023-03-01T10:42:28;7.72;;;4.93;;
75148;SDS011;63724;47.470;19.166;2023-03-01T10:45:35;8.52;;;5.07;;
75148;SDS011;63724;47.470;19.166;2023-03-01T10:48:38;10.40;;;6.03;;
75148;SDS011;63724;47.470;19.166;2023-03-01T10:51:48;10.70;;;5.07;;
75148;SDS011;63724;47.470;19.166;2023-03-01T10:54:53;10.82;;;5.65;;
75148;SDS011;63724;47.470;19.166;2023-03-01T10:58:19;9.38;;;5.28;;
75148;SDS011;63724;47.470;19.166;2023-03-01T11:01:25;9.35;;;4.75;;
75148;SDS011;63724;47.470;19.166;2023-03-01T11:04:29;10.05;;;5.53;;
75148;SDS011;63724;47.470;19.166;2023-03-01T11:07:32;8.57;;;5.07;;
75148;SDS011;63724;47.470;19.166;2023-03-01T11:11:21;8.88;;;6.00;;
75148;SDS011;63724;47.470;19.166;2023-03-01T11:14:35;9.40;;;6.10;;
75148;SDS011;63724;47.470;19.166;2023-03-01T11:17:39;12.15;;;6.63;;
75148;SDS011;63724;47.470;19.166;2023-03-01T11:20:58;9.48;;;6.03;;
75148;SDS011;63724;47.470;19.166;2023-03-01T11:24:03;9.17;;;5.10;;
75148;SDS011;63724;47.470;19.166;2023-03-01T11:27:15;10.65;;;4.63;;
75148;SDS011;63724;47.470;19.166;2023-03-01T11:34:20;6.47;;;4.57;;
75148;SDS011;63724;47.470;19.166;2023-03-01T11:44:41;10.82;;;3.95;;
75148;SDS011;63724;47.470;19.166;2023-03-01T11:50:58;12.73;;;4.40;;
75148;SDS011;63724;47.470;19.166;2023-03-01T12:16:29;7.40;;;3.57;;
75148;SDS011;63724;47.470;19.166;2023-03-01T12:23:26;6.38;;;3.63;;
75148;SDS011;63724;47.470;19.166;2023-03-01T12:26:47;6.88;;;3.95;;
75148;SDS011;63724;47.470;19.166;2023-03-01T12:42:57;7.00;;;2.70;;
75148;SDS011;63724;47.470;19.166;2023-03-01T12:49:50;7.03;;;3.27;;
75148;SDS011;63724;47.470;19.166;2023-03-01T12:52:58;7.35;;;3.03;;
75148;SDS011;63724;47.470;19.166;2023-03-01T12:56:02;8.38;;;2.95;;
75148;SDS011;63724;47.470;19.166;2023-03-01T13:02:28;5.10;;;2.60;;
75148;SDS011;63724;47.470;19.166;2023-03-01T13:05:45;9.77;;;2.63;;
75148;SDS011;63724;47.470;19.166;2023-03-01T13:09:04;4.47;;;2.95;;
75148;SDS011;63724;47.470;19.166;2023-03-01T13:15:53;9.30;;;2.55;;
75148;SDS011;63724;47.470;19.166;2023-03-01T13:19:27;4.97;;;2.30;;
75148;SDS011;63724;47.470;19.166;2023-03-01T13:22:38;5.60;;;3.20;;
75148;SDS011;63724;47.470;19.166;2023-03-01T13:26:14;7.18;;;2.92;;
75148;SDS011;63724;47.470;19.166;2023-03-01T13:29:28;8.63;;;3.03;;
75148;SDS011;63724;47.470;19.166;2023-03-01T13:34:03;21.17;;;3.53;;
75148;SDS011;63724;47.470;19.166;2023-03-01T13:36:48;6.30;;;3.15;;
75148;SDS011;63724;47.470;19.166;2023-03-01T13:39:52;7.93;;;2.97;;
75148;SDS011;63724;47.470;19.166;2023-03-01T13:42:56;6.15;;;2.92;;
75148;SDS011;63724;47.470;19.166;2023-03-01T13:46:22;5.72;;;3.00;;
75148;SDS011;63724;47.470;19.166;2023-03-01T13:49:27;7.72;;;3.67;;
75148;SDS011;63724;47.470;19.166;2023-03-01T13:52:50;9.68;;;2.53;;
75148;SDS011;63724;47.470;19.166;2023-03-01T13:55:56;6.87;;;2.60;;
75148;SDS011;63724;47.470;19.166;2023-03-01T13:59:20;5.07;;;2.92;;
75148;SDS011;63724;47.470;19.166;2023-03-01T14:02:23;6.28;;;2.83;;
75148;SDS011;63724;47.470;19.166;2023-03-01T14:05:25;9.65;;;2.20;;
75148;SDS011;63724;47.470;19.166;2023-03-01T14:08:29;4.72;;;2.55;;
75148;SDS011;63724;47.470;19.166;2023-03-01T14:21:16;6.25;;;3.05;;
75148;SDS011;63724;47.470;19.166;2023-03-01T14:24:20;5.30;;;2.47;;
75148;SDS011;63724;47.470;19.166;2023-03-01T14:27:28;6.20;;;2.90;;
75148;SDS011;63724;47.470;19.166;2023-03-01T14:30:36;4.75;;;2.95;;
75148;SDS011;63724;47.470;19.166;2023-03-01T14:33:40;6.85;;;2.80;;
75148;SDS011;63724;47.470;19.166;2023-03-01T14:36:43;7.18;;;2.78;;
75148;SDS011;63724;47.470;19.166;2023-03-01T14:39:46;5.85;;;2.58;;
75148;SDS011;63724;47.470;19.166;2023-03-01T14:42:49;6.83;;;2.80;;
75148;SDS011;63724;47.470;19.166;2023-03-01T14:45:51;4.90;;;2.30;;
75148;SDS011;63724;47.470;19.166;2023-03-01T14:49:37;6.18;;;2.30;;
75148;SDS011;63724;47.470;19.166;2023-03-01T14:52:22;9.82;;;2.63;;
75148;SDS011;63724;47.470;19.166;2023-03-01T14:55:28;7.97;;;2.40;;
75148;SDS011;63724;47.470;19.166;2023-03-01T14:58:32;10.47;;;2.90;;
75148;SDS011;63724;47.470;19.166;2023-03-01T15:01:37;4.93;;;2.80;;
75148;SDS011;63724;47.470;19.166;2023-03-01T15:04:45;7.45;;;2.78;;
75148;SDS011;63724;47.470;19.166;2023-03-01T15:07:49;6.60;;;2.72;;
75148;SDS011;63724;47.470;19.166;2023-03-01T15:11:02;5.28;;;2.83;;
75148;SDS011;63724;47.470;19.166;2023-03-01T15:14:45;6.13;;;2.90;;
75148;SDS011;63724;47.470;19.166;2023-03-01T15:18:06;7.55;;;2.75;;
75148;SDS011;63724;47.470;19.166;2023-03-01T15:21:36;12.18;;;3.30;;
75148;SDS011;63724;47.470;19.166;2023-03-01T15:24:39;4.18;;;2.40;;
75148;SDS011;63724;47.470;19.166;2023-03-01T15:27:46;8.35;;;3.17;;
75148;SDS011;63724;47.470;19.166;2023-03-01T15:30:53;4.83;;;3.07;;
75148;SDS011;63724;47.470;19.166;2023-03-01T15:34:09;5.90;;;2.40;;
75148;SDS011;63724;47.470;19.166;2023-03-01T15:37:38;4.72;;;2.72;;
75148;SDS011;63724;47.470;19.166;2023-03-01T15:40:55;7.68;;;3.05;;
75148;SDS011;63724;47.470;19.166;2023-03-01T15:44:00;7.43;;;3.58;;
75148;SDS011;63724;47.470;19.166;2023-03-01T15:47:26;10.43;;;2.90;;
75148;SDS011;63724;47.470;19.166;2023-03-01T15:50:32;6.50;;;2.60;;
75148;SDS011;63724;47.470;19.166;2023-03-01T15:53:36;7.38;;;2.55;;
75148;SDS011;63724;47.470;19.166;2023-03-01T15:56:54;12.55;;;2.50;;
75148;SDS011;63724;47.470;19.166;2023-03-01T16:00:00;5.20;;;2.60;;
75148;SDS011;63724;47.470;19.166;2023-03-01T16:03:05;6.37;;;2.37;;
75148;SDS011;63724;47.470;19.166;2023-03-01T16:06:11;7.68;;;2.28;;
75148;SDS011;63724;47.470;19.166;2023-03-01T16:09:14;5.00;;;2.63;;
75148;SDS011;63724;47.470;19.166;2023-03-01T16:12:17;10.05;;;3.53;;
75148;SDS011;63724;47.470;19.166;2023-03-01T16:15:20;12.32;;;4.05;;
75148;SDS011;63724;47.470;19.166;2023-03-01T16:18:25;5.20;;;2.87;;
75148;SDS011;63724;47.470;19.166;2023-03-01T16:21:27;6.22;;;2.97;;
75148;SDS011;63724;47.470;19.166;2023-03-01T16:24:30;6.07;;;2.33;;
75148;SDS011;63724;47.470;19.166;2023-03-01T16:27:33;10.40;;;3.38;;
75148;SDS011;63724;47.470;19.166;2023-03-01T16:30:36;7.15;;;3.30;;
75148;SDS011;63724;47.470;19.166;2023-03-01T16:33:40;8.63;;;3.30;;
75148;SDS011;63724;47.470;19.166;2023-03-01T16:36:42;8.00;;;3.85;;
75148;SDS011;63724;47.470;19.166;2023-03-01T16:39:45;13.93;;;4.75;;
75148;SDS011;63724;47.470;19.166;2023-03-01T16:42:48;12.38;;;5.72;;
75148;SDS011;63724;47.470;19.166;2023-03-01T16:45:50;20.88;;;6.95;;
75148;SDS011;63724;47.470;19.166;2023-03-01T16:48:54;20.07;;;8.03;;
75148;SDS011;63724;47.470;19.166;2023-03-01T16:51:56;19.73;;;7.25;;
75148;SDS011;63724;47.470;19.166;2023-03-01T16:55:00;19.85;;;7.97;;
75148;SDS011;63724;47.470;19.166;2023-03-01T16:58:02;19.75;;;9.50;;
75148;SDS011;63724;47.470;19.166;2023-03-01T17:01:10;23.00;;;9.35;;
75148;SDS011;63724;47.470;19.166;2023-03-01T17:04:14;20.10;;;9.20;;
75148;SDS011;63724;47.470;19.166;2023-03-01T17:07:17;19.83;;;9.23;;
75148;SDS011;63724;47.470;19.166;2023-03-01T17:10:19;33.50;;;12.80;;
75148;SDS011;63724;47.470;19.166;2023-03-01T17:13:22;57.67;;;23.15;;
75148;SDS011;63724;47.470;19.166;2023-03-01T17:16:25;56.65;;;23.42;;
75148;SDS011;63724;47.470;19.166;2023-03-01T17:19:28;31.07;;;13.97;;
75148;SDS011;63724;47.470;19.166;2023-03-01T17:22:31;17.83;;;7.50;;
75148;SDS011;63724;47.470;19.166;2023-03-01T17:25:33;19.40;;;8.80;;
75148;SDS011;63724;47.470;19.166;2023-03-01T17:28:36;9.90;;;5.95;;
75148;SDS011;63724;47.470;19.166;2023-03-01T17:31:39;11.95;;;6.20;;
75148;SDS011;63724;47.470;19.166;2023-03-01T17:34:41;14.47;;;6.03;;
75148;SDS011;63724;47.470;19.166;2023-03-01T17:37:48;11.88;;;6.13;;
75148;SDS011;63724;47.470;19.166;2023-03-01T17:40:50;11.80;;;5.28;;
75148;SDS011;63724;47.470;19.166;2023-03-01T17:43:53;13.38;;;6.10;;
75148;SDS011;63724;47.470;19.166;2023-03-01T17:46:55;12.82;;;5.88;;
75148;SDS011;63724;47.470;19.166;2023-03-01T17:49:58;11.20;;;5.37;;
75148;SDS011;63724;47.470;19.166;2023-03-01T17:53:01;13.32;;;5.57;;
75148;SDS011;63724;47.470;19.166;2023-03-01T17:56:08;11.57;;;5.72;;
75148;SDS011;63724;47.470;19.166;2023-03-01T17:59:11;12.38;;;5.80;;
75148;SDS011;63724;47.470;19.166;2023-03-01T18:02:13;11.27;;;5.50;;
75148;SDS011;63724;47.470;19.166;2023-03-01T18:05:17;22.90;;;9.57;;
75148;SDS011;63724;47.470;19.166;2023-03-01T18:09:15;36.55;;;12.95;;
75148;SDS011;63724;47.470;19.166;2023-03-01T18:12:18;28.88;;;10.75;;
75148;SDS011;63724;47.470;19.166;2023-03-01T18:15:20;27.23;;;11.88;;
75148;SDS011;63724;47.470;19.166;2023-03-01T18:18:23;17.52;;;8.98;;
75148;SDS011;63724;47.470;19.166;2023-03-01T18:21:26;18.13;;;8.90;;
75148;SDS011;63724;47.470;19.166;2023-03-01T18:24:29;16.00;;;8.88;;
75148;SDS011;63724;47.470;19.166;2023-03-01T18:27:32;16.75;;;9.07;;
75148;SDS011;63724;47.470;19.166;2023-03-01T18:30:34;18.25;;;9.48;;
75148;SDS011;63724;47.470;19.166;2023-03-01T18:33:37;19.75;;;10.00;;
75148;SDS011;63724;47.470;19.166;2023-03-01T18:36:40;22.97;;;10.60;;
75148;SDS011;63724;47.470;19.166;2023-03-01T18:39:56;24.90;;;11.98;;
75148;SDS011;63724;47.470;19.166;2023-03-01T18:42:59;20.02;;;12.32;;
75148;SDS011;63724;47.470;19.166;2023-03-01T18:46:01;19.35;;;11.88;;
75148;SDS011;63724;47.470;19.166;2023-03-01T18:49:06;23.73;;;11.60;;
75148;SDS011;63724;47.470;19.166;2023-03-01T18:52:09;22.30;;;11.60;;
75148;SDS011;63724;47.470;19.166;2023-03-01T18:55:11;19.70;;;11.45;;
75148;SDS011;63724;47.470;19.166;2023-03-01T18:58:13;19.48;;;11.07;;
75148;SDS011;63724;47.470;19.166;2023-03-01T19:01:17;20.27;;;11.10;;
75148;SDS011;63724;47.470;19.166;2023-03-01T19:04:24;20.52;;;9.90;;
75148;SDS011;63724;47.470;19.166;2023-03-01T19:07:28;19.17;;;9.73;;
75148;SDS011;63724;47.470;19.166;2023-03-01T19:10:30;19.85;;;9.38;;
75148;SDS011;63724;47.470;19.166;2023-03-01T19:13:33;22.30;;;9.88;;
75148;SDS011;63724;47.470;19.166;2023-03-01T19:16:36;15.27;;;9.07;;
75148;SDS011;63724;47.470;19.166;2023-03-01T19:19:39;15.73;;;8.82;;
75148;SDS011;63724;47.470;19.166;2023-03-01T19:22:41;20.97;;;10.23;;
75148;SDS011;63724;47.470;19.166;2023-03-01T19:25:43;21.25;;;9.90;;
75148;SDS011;63724;47.470;19.166;2023-03-01T19:28:46;25.75;;;10.68;;
75148;SDS011;63724;47.470;19.166;2023-03-01T19:31:48;21.48;;;9.90;;
75148;SDS011;63724;47.470;19.166;2023-03-01T19:34:51;19.38;;;10.02;;
75148;SDS011;63724;47.470;19.166;2023-03-01T19:37:53;31.20;;;16.43;;
75148;SDS011;63724;47.470;19.166;2023-03-01T19:40:55;29.05;;;13.85;;
75148;SDS011;63724;47.470;19.166;2023-03-01T19:43:58;28.40;;;13.60;;
75148;SDS011;63724;47.470;19.166;2023-03-01T19:47:03;30.33;;;15.07;;
75148;SDS011;63724;47.470;19.166;2023-03-01T19:50:06;30.95;;;14.70;;
75148;SDS011;63724;47.470;19.166;2023-03-01T19:53:09;28.10;;;13.60;;
75148;SDS011;63724;47.470;19.166;2023-03-01T19:56:11;36.53;;;17.83;;